sensor_id;sensor_type;location;lat;lon;timestamp;temperature;humidity
77523;SHT31;66637;-29.628;-49.938;2023-07-02T00:02:00;18.47;83.09
77523;SHT31;66637;-29.628;-49.938;2023-07-02T00:05:06;18.47;82.96
77523;SHT31;66637;-29.628;-49.938;2023-07-02T00:07:41;18.45;83.08
77523;SHT31;66637;-29.628;-49.938;2023-07-02T00:10:17;18.44;83.09
77523;SHT31;66637;-29.628;-49.938;2023-07-02T00:12:55;18.41;83.03
77523;SHT31;66637;-29.628;-49.938;2023-07-02T00:15:32;18.37;83.22
77523;SHT31;66637;-29.628;-49.938;2023-07-02T00:22:05;18.27;83.12
77523;SHT31;66637;-29.628;-49.938;2023-07-02T00:24:52;18.31;83.07
77523;SHT31;66637;-29.628;-49.938;2023-07-02T00:27:56;18.28;82.91
77523;SHT31;66637;-29.628;-49.938;2023-07-02T00:30:38;18.30;82.67
77523;SHT31;66637;-29.628;-49.938;2023-07-02T00:33:59;18.33;82.31
77523;SHT31;66637;-29.628;-49.938;2023-07-02T00:38:33;18.30;82.37
77523;SHT31;66637;-29.628;-49.938;2023-07-02T00:41:09;18.24;82.38
77523;SHT31;66637;-29.628;-49.938;2023-07-02T00:43:50;18.21;82.43
77523;SHT31;66637;-29.628;-49.938;2023-07-02T00:46:26;18.21;82.27
77523;SHT31;66637;-29.628;-49.938;2023-07-02T00:49:03;18.23;82.18
77523;SHT31;66637;-29.628;-49.938;2023-07-02T00:51:39;18.21;82.27
77523;SHT31;66637;-29.628;-49.938;2023-07-02T00:54:20;18.20;82.30
77523;SHT31;66637;-29.628;-49.938;2023-07-02T00:56:54;18.18;82.05
77523;SHT31;66637;-29.628;-49.938;2023-07-02T01:00:14;18.23;81.99
77523;SHT31;66637;-29.628;-49.938;2023-07-02T01:02:56;18.17;82.21
77523;SHT31;66637;-29.628;-49.938;2023-07-02T01:05:30;18.14;82.16
77523;SHT31;66637;-29.628;-49.938;2023-07-02T01:08:08;18.10;82.15
77523;SHT31;66637;-29.628;-49.938;2023-07-02T01:10:44;18.07;82.17
77523;SHT31;66637;-29.628;-49.938;2023-07-02T01:13:19;18.03;82.18
77523;SHT31;66637;-29.628;-49.938;2023-07-02T01:15:51;18.03;82.24
77523;SHT31;66637;-29.628;-49.938;2023-07-02T01:18:25;18.01;81.99
77523;SHT31;66637;-29.628;-49.938;2023-07-02T01:20:57;17.96;82.14
77523;SHT31;66637;-29.628;-49.938;2023-07-02T01:23:33;17.96;82.23
77523;SHT31;66637;-29.628;-49.938;2023-07-02T01:26:05;17.90;82.22
77523;SHT31;66637;-29.628;-49.938;2023-07-02T01:28:37;17.86;82.28
77523;SHT31;66637;-29.628;-49.938;2023-07-02T01:31:09;17.82;82.61
77523;SHT31;66637;-29.628;-49.938;2023-07-02T01:33:42;17.79;82.68
77523;SHT31;66637;-29.628;-49.938;2023-07-02T01:36:13;17.80;82.68
77523;SHT31;66637;-29.628;-49.938;2023-07-02T01:38:48;17.80;82.51
77523;SHT31;66637;-29.628;-49.938;2023-07-02T01:41:52;17.79;82.83
77523;SHT31;66637;-29.628;-49.938;2023-07-02T01:44:28;17.82;82.80
77523;SHT31;66637;-29.628;-49.938;2023-07-02T01:47:25;17.82;83.19
77523;SHT31;66637;-29.628;-49.938;2023-07-02T01:50:30;17.82;83.14
77523;SHT31;66637;-29.628;-49.938;2023-07-02T01:53:05;17.85;83.06
77523;SHT31;66637;-29.628;-49.938;2023-07-02T01:55:44;17.83;83.20
77523;SHT31;66637;-29.628;-49.938;2023-07-02T01:58:15;17.83;83.45
77523;SHT31;66637;-29.628;-49.938;2023-07-02T02:00:55;17.85;83.29
77523;SHT31;66637;-29.628;-49.938;2023-07-02T02:03:34;17.86;83.30
77523;SHT31;66637;-29.628;-49.938;2023-07-02T02:06:07;17.85;83.52
77523;SHT31;66637;-29.628;-49.938;2023-07-02T02:08:46;17.85;83.67
77523;SHT31;66637;-29.628;-49.938;2023-07-02T02:14:41;17.86;83.53
77523;SHT31;66637;-29.628;-49.938;2023-07-02T02:17:15;17.85;83.65
77523;SHT31;66637;-29.628;-49.938;2023-07-02T02:19:50;17.87;83.50
77523;SHT31;66637;-29.628;-49.938;2023-07-02T02:22:22;17.93;83.36
77523;SHT31;66637;-29.628;-49.938;2023-07-02T02:24:59;17.89;83.34
77523;SHT31;66637;-29.628;-49.938;2023-07-02T02:27:47;17.85;83.58
77523;SHT31;66637;-29.628;-49.938;2023-07-02T02:30:19;17.76;83.54
77523;SHT31;66637;-29.628;-49.938;2023-07-02T02:33:00;17.85;83.55
77523;SHT31;66637;-29.628;-49.938;2023-07-02T02:35:56;17.79;83.45
77523;SHT31;66637;-29.628;-49.938;2023-07-02T02:39:08;17.76;83.60
77523;SHT31;66637;-29.628;-49.938;2023-07-02T02:42:01;17.76;83.52
77523;SHT31;66637;-29.628;-49.938;2023-07-02T02:44:41;17.73;83.83
77523;SHT31;66637;-29.628;-49.938;2023-07-02T02:47:28;17.80;83.83
77523;SHT31;66637;-29.628;-49.938;2023-07-02T02:50:56;17.83;83.78
77523;SHT31;66637;-29.628;-49.938;2023-07-02T02:54:05;17.82;83.64
77523;SHT31;66637;-29.628;-49.938;2023-07-02T02:57:13;17.77;83.41
77523;SHT31;66637;-29.628;-49.938;2023-07-02T02:59:53;17.82;83.11
77523;SHT31;66637;-29.628;-49.938;2023-07-02T03:02:27;17.76;83.21
77523;SHT31;66637;-29.628;-49.938;2023-07-02T03:05:05;17.70;83.11
77523;SHT31;66637;-29.628;-49.938;2023-07-02T03:08:01;17.72;82.91
77523;SHT31;66637;-29.628;-49.938;2023-07-02T03:10:54;17.66;82.92
77523;SHT31;66637;-29.628;-49.938;2023-07-02T03:13:57;17.70;82.98
77523;SHT31;66637;-29.628;-49.938;2023-07-02T03:17:25;17.65;82.99
77523;SHT31;66637;-29.628;-49.938;2023-07-02T03:20:33;17.61;82.88
77523;SHT31;66637;-29.628;-49.938;2023-07-02T03:24:24;17.61;83.13
77523;SHT31;66637;-29.628;-49.938;2023-07-02T03:27:04;17.55;82.91
77523;SHT31;66637;-29.628;-49.938;2023-07-02T03:30:46;17.47;82.96
77523;SHT31;66637;-29.628;-49.938;2023-07-02T03:34:24;17.38;82.95
77523;SHT31;66637;-29.628;-49.938;2023-07-02T03:37:11;17.33;83.08
77523;SHT31;66637;-29.628;-49.938;2023-07-02T03:40:24;17.32;83.03
77523;SHT31;66637;-29.628;-49.938;2023-07-02T03:43:13;17.26;83.07
77523;SHT31;66637;-29.628;-49.938;2023-07-02T03:45:58;17.21;82.95
77523;SHT31;66637;-29.628;-49.938;2023-07-02T03:48:59;17.21;83.04
77523;SHT31;66637;-29.628;-49.938;2023-07-02T03:51:40;17.16;83.11
77523;SHT31;66637;-29.628;-49.938;2023-07-02T03:54:35;17.11;83.08
77523;SHT31;66637;-29.628;-49.938;2023-07-02T03:57:25;17.04;83.09
77523;SHT31;66637;-29.628;-49.938;2023-07-02T04:00:15;16.96;83.42
77523;SHT31;66637;-29.628;-49.938;2023-07-02T04:03:35;16.95;83.38
77523;SHT31;66637;-29.628;-49.938;2023-07-02T04:06:30;16.91;83.43
77523;SHT31;66637;-29.628;-49.938;2023-07-02T04:09:11;16.84;83.33
77523;SHT31;66637;-29.628;-49.938;2023-07-02T04:11:48;16.85;83.57
77523;SHT31;66637;-29.628;-49.938;2023-07-02T04:14:40;16.81;83.58
77523;SHT31;66637;-29.628;-49.938;2023-07-02T04:17:44;16.78;83.50
77523;SHT31;66637;-29.628;-49.938;2023-07-02T04:24:13;16.60;83.72
77523;SHT31;66637;-29.628;-49.938;2023-07-02T04:27:22;16.61;83.47
77523;SHT31;66637;-29.628;-49.938;2023-07-02T04:30:30;16.63;83.73
77523;SHT31;66637;-29.628;-49.938;2023-07-02T04:33:47;16.60;83.59
77523;SHT31;66637;-29.628;-49.938;2023-07-02T04:37:09;16.54;83.77
77523;SHT31;66637;-29.628;-49.938;2023-07-02T04:39:49;16.53;83.80
77523;SHT31;66637;-29.628;-49.938;2023-07-02T04:42:37;16.56;84.00
77523;SHT31;66637;-29.628;-49.938;2023-07-02T04:45:32;16.51;84.13
77523;SHT31;66637;-29.628;-49.938;2023-07-02T04:49:02;16.61;84.16
77523;SHT31;66637;-29.628;-49.938;2023-07-02T04:52:19;16.59;84.51
77523;SHT31;66637;-29.628;-49.938;2023-07-02T04:55:33;16.50;83.80
77523;SHT31;66637;-29.628;-49.938;2023-07-02T04:58:10;16.40;83.88
77523;SHT31;66637;-29.628;-49.938;2023-07-02T05:00:57;16.29;84.06
77523;SHT31;66637;-29.628;-49.938;2023-07-02T05:03:46;16.20;84.05
77523;SHT31;66637;-29.628;-49.938;2023-07-02T05:06:23;16.14;84.35
77523;SHT31;66637;-29.628;-49.938;2023-07-02T05:09:06;16.09;84.25
77523;SHT31;66637;-29.628;-49.938;2023-07-02T05:11:55;16.03;84.03
77523;SHT31;66637;-29.628;-49.938;2023-07-02T05:14:45;15.95;84.02
77523;SHT31;66637;-29.628;-49.938;2023-07-02T05:17:55;15.93;84.97
77523;SHT31;66637;-29.628;-49.938;2023-07-02T05:20:43;15.89;84.61
77523;SHT31;66637;-29.628;-49.938;2023-07-02T05:23:33;15.83;85.24
77523;SHT31;66637;-29.628;-49.938;2023-07-02T05:26:17;15.79;84.70
77523;SHT31;66637;-29.628;-49.938;2023-07-02T05:28:56;15.75;84.60
77523;SHT31;66637;-29.628;-49.938;2023-07-02T05:31:37;15.79;85.56
77523;SHT31;66637;-29.628;-49.938;2023-07-02T05:34:40;15.79;85.88
77523;SHT31;66637;-29.628;-49.938;2023-07-02T05:37:34;15.78;85.88
77523;SHT31;66637;-29.628;-49.938;2023-07-02T05:40:20;15.72;85.70
77523;SHT31;66637;-29.628;-49.938;2023-07-02T05:43:04;15.63;85.43
77523;SHT31;66637;-29.628;-49.938;2023-07-02T05:45:44;15.59;85.14
77523;SHT31;66637;-29.628;-49.938;2023-07-02T05:48:20;15.54;85.04
77523;SHT31;66637;-29.628;-49.938;2023-07-02T05:51:00;15.58;84.75
77523;SHT31;66637;-29.628;-49.938;2023-07-02T05:54:20;15.66;84.68
77523;SHT31;66637;-29.628;-49.938;2023-07-02T05:57:15;15.54;84.45
77523;SHT31;66637;-29.628;-49.938;2023-07-02T06:00:03;15.42;84.12
77523;SHT31;66637;-29.628;-49.938;2023-07-02T06:02:49;15.35;84.23
77523;SHT31;66637;-29.628;-49.938;2023-07-02T06:05:25;15.41;84.26
77523;SHT31;66637;-29.628;-49.938;2023-07-02T06:08:02;15.27;83.72
77523;SHT31;66637;-29.628;-49.938;2023-07-02T06:14:28;15.21;83.58
77523;SHT31;66637;-29.628;-49.938;2023-07-02T06:17:29;15.20;83.70
77523;SHT31;66637;-29.628;-49.938;2023-07-02T06:20:20;15.17;83.51
77523;SHT31;66637;-29.628;-49.938;2023-07-02T06:23:03;15.03;83.25
77523;SHT31;66637;-29.628;-49.938;2023-07-02T06:25:50;15.07;83.52
77523;SHT31;66637;-29.628;-49.938;2023-07-02T06:28:49;15.03;83.18
77523;SHT31;66637;-29.628;-49.938;2023-07-02T06:31:21;15.03;83.53
77523;SHT31;66637;-29.628;-49.938;2023-07-02T06:33:59;14.94;82.88
77523;SHT31;66637;-29.628;-49.938;2023-07-02T06:37:08;15.00;83.34
77523;SHT31;66637;-29.628;-49.938;2023-07-02T06:39:47;14.91;83.30
77523;SHT31;66637;-29.628;-49.938;2023-07-02T06:42:45;14.88;83.76
77523;SHT31;66637;-29.628;-49.938;2023-07-02T06:45:54;14.93;83.73
77523;SHT31;66637;-29.628;-49.938;2023-07-02T06:48:28;14.83;83.73
77523;SHT31;66637;-29.628;-49.938;2023-07-02T06:51:06;14.80;83.87
77523;SHT31;66637;-29.628;-49.938;2023-07-02T06:54:24;14.80;83.52
77523;SHT31;66637;-29.628;-49.938;2023-07-02T06:57:17;14.83;83.71
77523;SHT31;66637;-29.628;-49.938;2023-07-02T06:59:49;14.84;83.37
77523;SHT31;66637;-29.628;-49.938;2023-07-02T07:02:47;14.79;83.70
77523;SHT31;66637;-29.628;-49.938;2023-07-02T07:05:45;14.72;83.70
77523;SHT31;66637;-29.628;-49.938;2023-07-02T07:08:22;14.73;83.76
77523;SHT31;66637;-29.628;-49.938;2023-07-02T07:10:57;14.80;83.59
77523;SHT31;66637;-29.628;-49.938;2023-07-02T07:13:53;14.84;84.04
77523;SHT31;66637;-29.628;-49.938;2023-07-02T07:16:34;14.83;84.16
77523;SHT31;66637;-29.628;-49.938;2023-07-02T07:19:28;14.80;84.15
77523;SHT31;66637;-29.628;-49.938;2023-07-02T07:22:12;14.83;84.33
77523;SHT31;66637;-29.628;-49.938;2023-07-02T07:24:44;14.79;84.52
77523;SHT31;66637;-29.628;-49.938;2023-07-02T07:27:20;14.86;84.59
77523;SHT31;66637;-29.628;-49.938;2023-07-02T07:30:24;14.90;84.62
77523;SHT31;66637;-29.628;-49.938;2023-07-02T07:33:29;14.83;84.90
77523;SHT31;66637;-29.628;-49.938;2023-07-02T07:37:07;14.83;85.12
77523;SHT31;66637;-29.628;-49.938;2023-07-02T07:40:03;14.80;85.34
77523;SHT31;66637;-29.628;-49.938;2023-07-02T07:42:42;14.76;85.39
77523;SHT31;66637;-29.628;-49.938;2023-07-02T07:45:34;14.70;85.42
77523;SHT31;66637;-29.628;-49.938;2023-07-02T07:48:11;14.67;85.66
77523;SHT31;66637;-29.628;-49.938;2023-07-02T07:50:46;14.63;85.79
77523;SHT31;66637;-29.628;-49.938;2023-07-02T07:53:46;14.69;85.96
77523;SHT31;66637;-29.628;-49.938;2023-07-02T07:56:29;14.63;86.06
77523;SHT31;66637;-29.628;-49.938;2023-07-02T07:59:17;14.63;86.04
77523;SHT31;66637;-29.628;-49.938;2023-07-02T08:02:06;14.81;85.82
77523;SHT31;66637;-29.628;-49.938;2023-07-02T08:04:40;14.80;85.98
77523;SHT31;66637;-29.628;-49.938;2023-07-02T08:07:38;14.84;86.00
77523;SHT31;66637;-29.628;-49.938;2023-07-02T08:10:17;14.87;86.05
77523;SHT31;66637;-29.628;-49.938;2023-07-02T08:12:51;14.93;86.03
77523;SHT31;66637;-29.628;-49.938;2023-07-02T08:15:35;14.95;86.09
77523;SHT31;66637;-29.628;-49.938;2023-07-02T08:18:08;15.01;86.14
77523;SHT31;66637;-29.628;-49.938;2023-07-02T08:21:24;15.00;86.19
77523;SHT31;66637;-29.628;-49.938;2023-07-02T08:24:24;15.05;86.28
77523;SHT31;66637;-29.628;-49.938;2023-07-02T08:26:57;15.07;86.33
77523;SHT31;66637;-29.628;-49.938;2023-07-02T08:29:51;15.14;86.30
77523;SHT31;66637;-29.628;-49.938;2023-07-02T08:32:35;15.15;86.46
77523;SHT31;66637;-29.628;-49.938;2023-07-02T08:35:49;15.15;86.29
77523;SHT31;66637;-29.628;-49.938;2023-07-02T08:38:21;15.15;86.48
77523;SHT31;66637;-29.628;-49.938;2023-07-02T08:41:21;15.24;86.63
77523;SHT31;66637;-29.628;-49.938;2023-07-02T08:44:12;15.23;86.18
77523;SHT31;66637;-29.628;-49.938;2023-07-02T08:47:02;15.25;86.67
77523;SHT31;66637;-29.628;-49.938;2023-07-02T08:49:41;15.32;86.70
77523;SHT31;66637;-29.628;-49.938;2023-07-02T08:52:16;15.41;86.56
77523;SHT31;66637;-29.628;-49.938;2023-07-02T08:54:47;15.42;86.55
77523;SHT31;66637;-29.628;-49.938;2023-07-02T08:57:29;15.39;86.71
77523;SHT31;66637;-29.628;-49.938;2023-07-02T09:00:10;15.47;86.59
77523;SHT31;66637;-29.628;-49.938;2023-07-02T09:03:12;15.44;86.72
77523;SHT31;66637;-29.628;-49.938;2023-07-02T09:06:07;15.47;86.60
77523;SHT31;66637;-29.628;-49.938;2023-07-02T09:09:05;15.49;86.63
77523;SHT31;66637;-29.628;-49.938;2023-07-02T09:15:04;15.54;86.53
77523;SHT31;66637;-29.628;-49.938;2023-07-02T09:18:19;15.54;86.54
77523;SHT31;66637;-29.628;-49.938;2023-07-02T09:20:55;15.54;86.67
77523;SHT31;66637;-29.628;-49.938;2023-07-02T09:23:39;15.59;86.71
77523;SHT31;66637;-29.628;-49.938;2023-07-02T09:26:22;15.58;86.83
77523;SHT31;66637;-29.628;-49.938;2023-07-02T09:29:01;15.66;86.74
77523;SHT31;66637;-29.628;-49.938;2023-07-02T09:34:46;15.76;86.47
77523;SHT31;66637;-29.628;-49.938;2023-07-02T09:37:17;15.79;86.64
77523;SHT31;66637;-29.628;-49.938;2023-07-02T09:40:06;15.79;86.62
77523;SHT31;66637;-29.628;-49.938;2023-07-02T09:42:41;15.85;86.64
77523;SHT31;66637;-29.628;-49.938;2023-07-02T09:45:13;15.88;86.78
77523;SHT31;66637;-29.628;-49.938;2023-07-02T09:47:57;15.85;86.89
77523;SHT31;66637;-29.628;-49.938;2023-07-02T09:50:51;15.85;87.13
77523;SHT31;66637;-29.628;-49.938;2023-07-02T09:54:10;15.98;87.15
77523;SHT31;66637;-29.628;-49.938;2023-07-02T09:57:00;15.98;87.13
77523;SHT31;66637;-29.628;-49.938;2023-07-02T09:59:35;16.09;87.03
77523;SHT31;66637;-29.628;-49.938;2023-07-02T10:02:12;15.99;87.18
77523;SHT31;66637;-29.628;-49.938;2023-07-02T10:04:49;16.05;87.16
77523;SHT31;66637;-29.628;-49.938;2023-07-02T10:07:36;16.09;86.91
77523;SHT31;66637;-29.628;-49.938;2023-07-02T10:10:10;16.12;87.04
77523;SHT31;66637;-29.628;-49.938;2023-07-02T10:12:46;16.08;87.12
77523;SHT31;66637;-29.628;-49.938;2023-07-02T10:15:47;16.12;86.93
77523;SHT31;66637;-29.628;-49.938;2023-07-02T10:18:26;16.08;87.01
77523;SHT31;66637;-29.628;-49.938;2023-07-02T10:21:18;16.09;86.93
77523;SHT31;66637;-29.628;-49.938;2023-07-02T10:24:17;16.10;86.80
77523;SHT31;66637;-29.628;-49.938;2023-07-02T10:27:32;16.17;86.77
77523;SHT31;66637;-29.628;-49.938;2023-07-02T10:30:06;16.16;86.55
77523;SHT31;66637;-29.628;-49.938;2023-07-02T10:32:53;16.20;86.52
77523;SHT31;66637;-29.628;-49.938;2023-07-02T10:35:45;16.20;86.41
77523;SHT31;66637;-29.628;-49.938;2023-07-02T10:38:32;16.27;86.42
77523;SHT31;66637;-29.628;-49.938;2023-07-02T10:41:37;16.36;86.43
77523;SHT31;66637;-29.628;-49.938;2023-07-02T10:44:21;16.33;86.25
77523;SHT31;66637;-29.628;-49.938;2023-07-02T10:47:14;16.34;86.08
77523;SHT31;66637;-29.628;-49.938;2023-07-02T10:50:21;16.46;86.03
77523;SHT31;66637;-29.628;-49.938;2023-07-02T10:53:25;16.51;85.71
77523;SHT31;66637;-29.628;-49.938;2023-07-02T10:56:35;16.57;85.30
77523;SHT31;66637;-29.628;-49.938;2023-07-02T10:59:08;16.56;85.13
77523;SHT31;66637;-29.628;-49.938;2023-07-02T11:01:50;16.60;84.88
77523;SHT31;66637;-29.628;-49.938;2023-07-02T11:04:24;16.65;84.76
77523;SHT31;66637;-29.628;-49.938;2023-07-02T11:07:14;16.70;84.52
77523;SHT31;66637;-29.628;-49.938;2023-07-02T11:09:56;16.75;84.41
77523;SHT31;66637;-29.628;-49.938;2023-07-02T11:12:43;16.98;83.65
77523;SHT31;66637;-29.628;-49.938;2023-07-02T11:15:21;17.05;83.54
77523;SHT31;66637;-29.628;-49.938;2023-07-02T11:18:21;17.39;83.11
77523;SHT31;66637;-29.628;-49.938;2023-07-02T11:21:11;17.40;82.69
77523;SHT31;66637;-29.628;-49.938;2023-07-02T11:23:45;17.38;82.64
77523;SHT31;66637;-29.628;-49.938;2023-07-02T11:27:04;17.70;82.09
77523;SHT31;66637;-29.628;-49.938;2023-07-02T11:29:45;18.07;80.62
77523;SHT31;66637;-29.628;-49.938;2023-07-02T11:32:22;18.67;79.03
77523;SHT31;66637;-29.628;-49.938;2023-07-02T11:35:16;18.11;80.93
77523;SHT31;66637;-29.628;-49.938;2023-07-02T11:38:13;18.08;80.87
77523;SHT31;66637;-29.628;-49.938;2023-07-02T11:44:56;18.11;80.91
77523;SHT31;66637;-29.628;-49.938;2023-07-02T11:48:08;18.37;79.20
77523;SHT31;66637;-29.628;-49.938;2023-07-02T11:51:08;18.31;78.68
77523;SHT31;66637;-29.628;-49.938;2023-07-02T11:54:40;18.75;77.65
77523;SHT31;66637;-29.628;-49.938;2023-07-02T11:57:30;18.87;77.91
77523;SHT31;66637;-29.628;-49.938;2023-07-02T12:00:46;19.37;77.16
77523;SHT31;66637;-29.628;-49.938;2023-07-02T12:03:51;19.47;75.81
77523;SHT31;66637;-29.628;-49.938;2023-07-02T12:06:50;19.77;75.82
77523;SHT31;66637;-29.628;-49.938;2023-07-02T12:09:55;19.98;75.91
77523;SHT31;66637;-29.628;-49.938;2023-07-02T12:13:06;19.50;75.49
77523;SHT31;66637;-29.628;-49.938;2023-07-02T12:15:56;19.30;76.14
77523;SHT31;66637;-29.628;-49.938;2023-07-02T12:19:08;19.36;76.08
77523;SHT31;66637;-29.628;-49.938;2023-07-02T12:22:01;19.33;76.57
77523;SHT31;66637;-29.628;-49.938;2023-07-02T12:25:00;19.12;77.07
77523;SHT31;66637;-29.628;-49.938;2023-07-02T12:28:04;19.05;78.32
77523;SHT31;66637;-29.628;-49.938;2023-07-02T12:31:15;18.79;79.06
77523;SHT31;66637;-29.628;-49.938;2023-07-02T12:34:03;18.55;79.95
77523;SHT31;66637;-29.628;-49.938;2023-07-02T12:37:16;18.71;79.71
77523;SHT31;66637;-29.628;-49.938;2023-07-02T12:40:07;18.99;79.78
77523;SHT31;66637;-29.628;-49.938;2023-07-02T12:42:40;19.30;77.77
77523;SHT31;66637;-29.628;-49.938;2023-07-02T12:45:12;18.99;78.55
77523;SHT31;66637;-29.628;-49.938;2023-07-02T12:47:47;18.84;79.50
77523;SHT31;66637;-29.628;-49.938;2023-07-02T12:50:19;18.58;80.34
77523;SHT31;66637;-29.628;-49.938;2023-07-02T12:52:50;18.55;80.05
77523;SHT31;66637;-29.628;-49.938;2023-07-02T12:55:23;18.41;79.74
77523;SHT31;66637;-29.628;-49.938;2023-07-02T12:57:55;18.43;79.78
77523;SHT31;66637;-29.628;-49.938;2023-07-02T13:00:26;18.48;78.95
77523;SHT31;66637;-29.628;-49.938;2023-07-02T13:02:58;18.51;79.31
77523;SHT31;66637;-29.628;-49.938;2023-07-02T13:08:38;18.81;79.00
77523;SHT31;66637;-29.628;-49.938;2023-07-02T13:11:09;18.71;79.92
77523;SHT31;66637;-29.628;-49.938;2023-07-02T13:13:43;18.75;79.82
77523;SHT31;66637;-29.628;-49.938;2023-07-02T13:16:13;18.57;79.76
77523;SHT31;66637;-29.628;-49.938;2023-07-02T13:18:44;18.44;80.06
77523;SHT31;66637;-29.628;-49.938;2023-07-02T13:21:20;18.37;81.18
77523;SHT31;66637;-29.628;-49.938;2023-07-02T13:23:50;18.36;80.86
77523;SHT31;66637;-29.628;-49.938;2023-07-02T13:26:22;18.36;81.42
77523;SHT31;66637;-29.628;-49.938;2023-07-02T13:28:52;18.37;81.09
77523;SHT31;66637;-29.628;-49.938;2023-07-02T13:31:22;18.31;80.94
77523;SHT31;66637;-29.628;-49.938;2023-07-02T13:33:54;18.26;81.40
77523;SHT31;66637;-29.628;-49.938;2023-07-02T13:36:29;18.18;81.87
77523;SHT31;66637;-29.628;-49.938;2023-07-02T13:39:00;18.16;81.61
77523;SHT31;66637;-29.628;-49.938;2023-07-02T13:41:33;18.18;81.64
77523;SHT31;66637;-29.628;-49.938;2023-07-02T13:44:05;18.26;81.05
77523;SHT31;66637;-29.628;-49.938;2023-07-02T13:46:39;18.33;80.34
77523;SHT31;66637;-29.628;-49.938;2023-07-02T13:49:09;18.44;80.29
77523;SHT31;66637;-29.628;-49.938;2023-07-02T13:51:39;18.48;80.66
77523;SHT31;66637;-29.628;-49.938;2023-07-02T13:54:12;18.52;80.57
77523;SHT31;66637;-29.628;-49.938;2023-07-02T13:56:46;18.71;79.75
77523;SHT31;66637;-29.628;-49.938;2023-07-02T13:59:18;18.59;79.41
77523;SHT31;66637;-29.628;-49.938;2023-07-02T14:01:49;18.61;80.36
77523;SHT31;66637;-29.628;-49.938;2023-07-02T14:04:19;18.64;79.30
77523;SHT31;66637;-29.628;-49.938;2023-07-02T14:06:53;18.72;80.08
77523;SHT31;66637;-29.628;-49.938;2023-07-02T14:09:23;18.72;79.21
77523;SHT31;66637;-29.628;-49.938;2023-07-02T14:11:55;18.65;80.14
77523;SHT31;66637;-29.628;-49.938;2023-07-02T14:14:25;18.75;79.80
77523;SHT31;66637;-29.628;-49.938;2023-07-02T14:16:55;18.95;79.14
77523;SHT31;66637;-29.628;-49.938;2023-07-02T14:19:26;19.40;77.56
77523;SHT31;66637;-29.628;-49.938;2023-07-02T14:21:57;19.73;76.82
77523;SHT31;66637;-29.628;-49.938;2023-07-02T14:24:27;19.85;76.21
77523;SHT31;66637;-29.628;-49.938;2023-07-02T14:27:02;19.97;75.84
77523;SHT31;66637;-29.628;-49.938;2023-07-02T14:29:32;20.07;75.39
77523;SHT31;66637;-29.628;-49.938;2023-07-02T14:32:11;20.14;76.13
77523;SHT31;66637;-29.628;-49.938;2023-07-02T14:34:43;20.13;75.01
77523;SHT31;66637;-29.628;-49.938;2023-07-02T14:37:13;20.05;75.36
77523;SHT31;66637;-29.628;-49.938;2023-07-02T14:39:44;19.98;75.56
77523;SHT31;66637;-29.628;-49.938;2023-07-02T14:42:33;20.24;75.13
77523;SHT31;66637;-29.628;-49.938;2023-07-02T14:45:03;20.03;75.70
77523;SHT31;66637;-29.628;-49.938;2023-07-02T14:47:34;19.67;76.98
77523;SHT31;66637;-29.628;-49.938;2023-07-02T14:50:06;19.80;76.75
77523;SHT31;66637;-29.628;-49.938;2023-07-02T14:52:36;19.78;76.24
77523;SHT31;66637;-29.628;-49.938;2023-07-02T14:55:07;19.67;77.46
77523;SHT31;66637;-29.628;-49.938;2023-07-02T14:57:38;19.73;77.50
77523;SHT31;66637;-29.628;-49.938;2023-07-02T15:00:09;19.66;76.73
77523;SHT31;66637;-29.628;-49.938;2023-07-02T15:02:40;19.60;77.42
77523;SHT31;66637;-29.628;-49.938;2023-07-02T15:05:12;19.56;76.92
77523;SHT31;66637;-29.628;-49.938;2023-07-02T15:07:42;19.45;77.76
77523;SHT31;66637;-29.628;-49.938;2023-07-02T15:10:13;19.40;78.45
77523;SHT31;66637;-29.628;-49.938;2023-07-02T15:12:44;19.57;78.08
77523;SHT31;66637;-29.628;-49.938;2023-07-02T15:15:14;19.57;77.48
77523;SHT31;66637;-29.628;-49.938;2023-07-02T15:17:45;19.78;76.19
77523;SHT31;66637;-29.628;-49.938;2023-07-02T15:20:16;19.85;76.22
77523;SHT31;66637;-29.628;-49.938;2023-07-02T15:22:46;19.91;76.98
77523;SHT31;66637;-29.628;-49.938;2023-07-02T15:25:17;20.07;76.69
77523;SHT31;66637;-29.628;-49.938;2023-07-02T15:27:48;20.21;76.04
77523;SHT31;66637;-29.628;-49.938;2023-07-02T15:30:20;20.08;76.02
77523;SHT31;66637;-29.628;-49.938;2023-07-02T15:32:51;20.21;75.15
77523;SHT31;66637;-29.628;-49.938;2023-07-02T15:35:23;20.14;75.34
77523;SHT31;66637;-29.628;-49.938;2023-07-02T15:37:54;20.15;75.09
77523;SHT31;66637;-29.628;-49.938;2023-07-02T15:40:25;19.93;75.86
77523;SHT31;66637;-29.628;-49.938;2023-07-02T15:42:56;20.15;75.83
77523;SHT31;66637;-29.628;-49.938;2023-07-02T15:45:26;19.97;76.18
77523;SHT31;66637;-29.628;-49.938;2023-07-02T15:48:15;19.73;75.61
77523;SHT31;66637;-29.628;-49.938;2023-07-02T15:50:45;19.98;75.71
77523;SHT31;66637;-29.628;-49.938;2023-07-02T15:53:15;19.97;76.35
77523;SHT31;66637;-29.628;-49.938;2023-07-02T15:55:47;20.05;74.83
77523;SHT31;66637;-29.628;-49.938;2023-07-02T15:58:18;20.03;75.42
77523;SHT31;66637;-29.628;-49.938;2023-07-02T16:00:49;20.32;73.50
77523;SHT31;66637;-29.628;-49.938;2023-07-02T16:03:20;20.03;74.41
77523;SHT31;66637;-29.628;-49.938;2023-07-02T16:05:58;20.42;73.88
77523;SHT31;66637;-29.628;-49.938;2023-07-02T16:08:29;20.35;74.18
77523;SHT31;66637;-29.628;-49.938;2023-07-02T16:11:04;20.07;74.59
77523;SHT31;66637;-29.628;-49.938;2023-07-02T16:13:37;20.34;74.35
77523;SHT31;66637;-29.628;-49.938;2023-07-02T16:16:08;20.52;73.22
77523;SHT31;66637;-29.628;-49.938;2023-07-02T16:18:38;20.92;72.32
77523;SHT31;66637;-29.628;-49.938;2023-07-02T16:21:09;20.71;72.48
77523;SHT31;66637;-29.628;-49.938;2023-07-02T16:23:39;20.59;72.58
77523;SHT31;66637;-29.628;-49.938;2023-07-02T16:26:10;20.61;72.30
77523;SHT31;66637;-29.628;-49.938;2023-07-02T16:28:40;20.61;73.10
77523;SHT31;66637;-29.628;-49.938;2023-07-02T16:31:11;20.53;73.31
77523;SHT31;66637;-29.628;-49.938;2023-07-02T16:33:42;20.36;73.67
77523;SHT31;66637;-29.628;-49.938;2023-07-02T16:36:12;20.29;73.72
77523;SHT31;66637;-29.628;-49.938;2023-07-02T16:38:45;20.14;73.66
77523;SHT31;66637;-29.628;-49.938;2023-07-02T16:41:16;20.21;74.09
77523;SHT31;66637;-29.628;-49.938;2023-07-02T16:43:47;20.25;74.39
77523;SHT31;66637;-29.628;-49.938;2023-07-02T16:46:18;20.17;74.47
77523;SHT31;66637;-29.628;-49.938;2023-07-02T16:48:48;20.18;73.60
77523;SHT31;66637;-29.628;-49.938;2023-07-02T16:51:19;20.08;74.20
77523;SHT31;66637;-29.628;-49.938;2023-07-02T16:53:49;20.01;75.21
77523;SHT31;66637;-29.628;-49.938;2023-07-02T16:56:23;20.35;75.37
77523;SHT31;66637;-29.628;-49.938;2023-07-02T16:58:53;20.34;74.32
77523;SHT31;66637;-29.628;-49.938;2023-07-02T17:01:23;20.26;75.46
77523;SHT31;66637;-29.628;-49.938;2023-07-02T17:03:54;20.56;73.75